»·PEaware :: N4657 KSBA-KEMT

N4657 :: KSBA-KEMT

FLIGHT INFORMATION

Flight Status: Arrived
Operator: Privately registered:
United States
More flights under this callsign
Pilot: Daniel P. (20187)
Aircraft: PILATUS PC-12 EAGLE
(PC12)
More flights by this aircraft type
Origin: KSBA Santa Barbara Mun
United States
Destination: KEMT El Monte
United States
More flights between these airports :: More routes between these airports
Route: HENER FIM V186 ITSME V264 POM V197 PDZ
File this flight plan on PilotEdge
Remarks: TEC route SBAP17
Altitude:
(Current/Filed)
9,000ft
Speed:
(Current/Filed)
190kts
Departed: 14-Sep-18 01:37 PM
Arrived: 14-Sep-18 02:14 PM
Distance/Time
Traveled:
92nm/0:37
Distance/Time
To Go:
Arrived

Flight Plot

Page will automatically refresh every two minutes.


Map Options




Map Legend


Flown Route
Filed Route
Departure Airport
Arrival Airport
Navaid (VOR, NDB)
Fix

Horizontal Profiles

Position Reports

Time Latitude Longitude Heading Altitude Ground
Speed
14-Sep-18 13:18 34.429190 -119.845506 66 14ft 0kts
14-Sep-18 13:19 34.429190 -119.845506 66 14ft 0kts
14-Sep-18 13:20 34.429190 -119.845506 66 14ft 0kts
14-Sep-18 13:21 34.429190 -119.845506 66 14ft 0kts
14-Sep-18 13:22 34.429190 -119.845506 66 14ft 0kts
14-Sep-18 13:23 34.429190 -119.845506 66 14ft 0kts
14-Sep-18 13:24 34.429190 -119.845506 66 14ft 0kts
14-Sep-18 13:25 34.429190 -119.845506 66 14ft 0kts
14-Sep-18 13:26 34.429190 -119.845506 66 14ft 0kts
14-Sep-18 13:27 34.429190 -119.845506 66 14ft 0kts
14-Sep-18 13:28 34.429190 -119.845506 66 14ft 0kts
14-Sep-18 13:29 34.429190 -119.845506 66 14ft 0kts
14-Sep-18 13:30 34.429190 -119.845506 66 14ft 0kts
14-Sep-18 13:31 34.429190 -119.845506 66 14ft 0kts
14-Sep-18 13:32 34.429190 -119.845506 66 14ft 0kts
14-Sep-18 13:33 34.429198 -119.845476 76 14ft 2kts
14-Sep-18 13:34 34.428866 -119.844167 95 14ft 11kts
14-Sep-18 13:35 34.428911 -119.840372 89 14ft 10kts
14-Sep-18 13:36 34.429029 -119.836313 86 12ft 10kts
14-Sep-18 13:37 34.428708 -119.834655 179 10ft 0kts
14-Sep-18 13:38 34.428708 -119.834655 179 10ft 0kts
14-Sep-18 13:39 34.427808 -119.839407 267 13ft 88kts
14-Sep-18 13:40 34.427620 -119.884391 266 1108ft 165kts
14-Sep-18 13:41 34.426772 -119.944349 267 2320ft 187kts
14-Sep-18 13:42 34.426211 -120.008865 267 2999ft 201kts
14-Sep-18 13:43 34.420359 -120.075209 220 3156ft 193kts
14-Sep-18 13:44 34.374971 -120.060803 152 4116ft 172kts
14-Sep-18 13:45 34.358534 -120.015420 86 5130ft 172kts
14-Sep-18 13:46 34.359804 -119.957375 94 6132ft 183kts
14-Sep-18 13:47 34.357904 -119.892561 95 7138ft 199kts
14-Sep-18 13:48 34.355423 -119.824955 96 8131ft 204kts
14-Sep-18 13:49 34.352766 -119.755629 96 8983ft 213kts
14-Sep-18 13:50 34.349720 -119.680220 95 8989ft 235kts
14-Sep-18 13:51 34.346476 -119.598227 94 8995ft 248kts
14-Sep-18 13:52 34.343164 -119.514481 94 8995ft 250kts
14-Sep-18 13:53 34.339773 -119.430394 94 8995ft 250kts
14-Sep-18 13:54 34.336352 -119.347792 95 8995ft 249kts
14-Sep-18 13:55 34.333093 -119.270443 96 8992ft 248kts
14-Sep-18 13:56 34.334230 -119.186967 87 8993ft 249kts
14-Sep-18 13:57 34.340527 -119.103557 87 8993ft 249kts
14-Sep-18 13:58 34.346714 -119.020039 87 8994ft 249kts
14-Sep-18 13:59 34.352771 -118.937234 87 9001ft 246kts
14-Sep-18 14:00 34.349554 -118.857213 113 9017ft 238kts
14-Sep-18 14:01 34.325706 -118.783054 112 9017ft 237kts
14-Sep-18 14:02 34.302083 -118.708785 112 9008ft 238kts
14-Sep-18 14:03 34.278347 -118.634386 112 8997ft 239kts
14-Sep-18 14:04 34.254260 -118.559268 112 8983ft 241kts
14-Sep-18 14:05 34.230067 -118.484029 111 8976ft 237kts
14-Sep-18 14:06 34.206598 -118.410718 112 8977ft 233kts
14-Sep-18 14:07 34.186775 -118.349390 113 8095ft 174kts
14-Sep-18 14:08 34.170626 -118.299390 113 7089ft 153kts
14-Sep-18 14:09 34.154535 -118.249518 113 6095ft 172kts
14-Sep-18 14:10 34.136579 -118.194013 113 5103ft 183kts
14-Sep-18 14:11 34.125883 -118.139814 93 4340ft 159kts
14-Sep-18 14:12 34.124447 -118.087991 87 3301ft 148kts
14-Sep-18 14:13 34.135239 -118.039588 78 2910ft 152kts
14-Sep-18 14:14 34.122941 -118.013099 204 1481ft 104kts
14-Sep-18 14:15 34.099679 -118.026874 208 603ft 85kts
14-Sep-18 14:16 34.085494 -118.034774 166 286ft 0kts
14-Sep-18 14:17 34.085444 -118.034741 138 286ft 0kts
14-Sep-18 14:18 34.084977 -118.033862 0 288ft 1kts
14-Sep-18 14:19 34.084956 -118.033876 300 288ft 0kts
14-Sep-18 14:20 34.084956 -118.033876 300 288ft 0kts
14-Sep-18 14:21 34.084956 -118.033876 300 288ft 0kts

Navigation Log

Ident Type
1. KSBA Airport
2. HENER Fix
3. FIM Navaid
4. SESPE Fix
5. VNY Navaid
6. DARTS Fix
7. PURMS Fix
8. ELMOO Fix
9. ITSME Fix
10. HOPUN Fix
11. COVIN Fix
12. POM Navaid
13. PDZ Navaid
14. KEMT Airport